Aviation Digital Data Service (ADDS)

Output produced by TAFs form (0747 UTC 25 April 2014)
found at http://aviationweather.gov/adds/tafs/
 
KSAF 250525Z 2506/2606 02008KT P6SM SCT250 
     FM251700 23011KT P6SM BKN200 
     FM251900 23017G27KT P6SM BKN200 
     FM260200 23010KT P6SM BKN200